Latest Weather Observations for Hobart

IDT60901

Issued at 2:11 am EST Monday 3 August 2015 (issued every 10 minutes, with the page automatically refreshed every 10 minutes)

About weather observations | Map of Hobart area stations | Latest observations for Hobart area | Other Formats
Station Details ID: 094029 Name: HOBART (ELLERSLIE ROAD) Lat: -42.89 Lon: 147.33 Height: 50.5 m
Data from the previous 72 hours. | See also: Recent months at Hobart
Date/Time
EST
Tmp

°C
App
Tmp
°C
Dew
Point
°C
Rel
Hum
%
Delta-T

°C
Wind Press
QNH
hPa
Press
MSL
hPa
Rain
since
9 am
mm
Dir
 
Spd
km/h
Gust
km/h
Spd
kts
Gust
kts
03/02:00am 2.7 -3.0 0.3 84 0.9 NW 20 30 11 16 994.6 994.6 7.4
03/01:30am 2.6 -4.2 0.5 86 0.8 NW 26 35 14 19 994.6 994.6 7.4
03/01:00am 3.2 -4.1 0.3 81 1.1 NW 28 43 15 23 994.4 994.4 7.0
03/12:30am 3.0 -4.3 0.1 81 1.1 NW 28 39 15 21 993.8 993.8 7.0
03/12:00am 3.2 -2.8 1.1 86 0.8 NW 22 32 12 17 994.6 994.6 7.0
 
Date/Time
EST
Tmp

°C
App
Tmp
°C
Dew
Point
°C
Rel
Hum
%
Delta-T

°C
Wind Press
QNH
hPa
Press
MSL
hPa
Rain
since
9 am
mm
Dir
 
Spd
km/h
Gust
km/h
Spd
kts
Gust
kts
02/11:30pm 3.2 -1.8 1.1 86 0.8 NW 17 30 9 16 994.6 994.6 6.6
02/11:00pm 2.9 -2.5 1.1 88 0.7 NW 19 32 10 17 994.5 994.5 6.6
02/10:30pm 2.4 -3.6 1.1 91 0.5 NW 22 32 12 17 994.6 994.6 6.4
02/10:00pm 2.7 -4.4 1.2 90 0.6 NW 28 41 15 22 994.9 994.9 5.4
02/09:30pm 3.8 -2.9 1.3 84 1.0 NW 26 43 14 23 995.0 995.0 3.4
02/09:00pm 4.4 -2.5 0.0 73 1.7 NW 26 43 14 23 995.0 995.0 3.2
02/08:30pm 4.5 -1.8 -0.8 68 2.0 NW 22 35 12 19 994.9 994.9 3.2
02/08:00pm 4.5 -1.7 -0.5 70 1.9 WNW 22 32 12 17 995.8 995.8 3.2
02/07:30pm 4.7 -1.5 -0.3 70 1.9 WNW 22 35 12 19 996.1 996.2 3.2
02/07:00pm 4.1 -2.4 0.5 77 1.4 WNW 24 33 13 18 996.3 996.4 3.2
02/06:30pm 4.8 -2.2 -0.5 68 2.0 NW 26 43 14 23 996.2 996.3 3.0
02/06:00pm 5.0 -0.6 -0.2 69 2.0 NW 19 26 10 14 996.5 996.6 3.0
02/05:30pm 5.1 -1.5 -0.7 66 2.2 NW 24 35 13 19 996.2 996.3 3.0
02/05:00pm 5.2 -1.4 -0.6 66 2.2 NW 24 33 13 18 995.6 995.6 3.0
02/04:30pm 5.1 -1.5 -0.4 67 2.1 NW 24 35 13 19 995.2 995.2 3.0
02/04:00pm 5.1 -1.7 0.5 72 1.8 NNW 26 37 14 20 995.0 995.0 3.0
02/03:30pm 5.5 -0.5 1.3 74 1.7 NNW 22 32 12 17 995.2 995.2 3.0
02/03:05pm 5.9 0.3 -0.3 64 2.4 W 19 56 10 30 995.6 995.6 3.0
02/03:00pm 6.9 1.6 -0.3 60 2.8 WNW 17 37 9 20 995.4 995.4 3.0
02/02:35pm 6.6 -0.8 -0.6 60 2.8 NW 28 61 15 33 994.7 994.7 3.0
02/02:30pm 6.7 0.0 -0.8 59 2.9 NW 24 48 13 26 994.8 994.8 3.0
02/02:00pm 6.7 2.4 1.3 68 2.2 NW 13 24 7 13 995.6 995.6 3.0
02/01:30pm 7.2 2.1 1.0 65 2.5 WNW 17 28 9 15 994.9 994.9 2.8
02/01:00pm 7.3 -0.1 4.1 80 1.4 NW 32 50 17 27 994.4 994.4 2.8
02/12:39pm 7.6 -2.1 3.7 76 1.7 WNW 44 74 24 40 994.0 994.0 2.0
02/12:30pm 8.0 -3.7 3.1 71 2.1 WNW 54 85 29 46 993.7 993.7 1.2
02/12:28pm 8.1 -2.9 3.2 71 2.1 NW 50 85 27 46 993.7 993.7 1.2
02/12:00pm 11.8 1.6 -0.3 43 5.0 NW 43 69 23 37 992.9 992.9 0.0
02/11:30am 11.8 1.9 -0.7 42 5.0 NW 41 59 22 32 993.6 993.6 0.0
02/11:00am 11.8 2.3 -0.4 43 5.0 NNW 39 57 21 31 994.3 994.3 0.0
02/10:30am 11.8 1.5 -0.7 42 5.0 NNW 43 63 23 34 994.8 994.8 0.0
02/10:12am 11.3 1.4 -0.8 43 4.8 NNW 41 59 22 32 995.2 995.2 0.0
02/10:00am 11.0 1.1 -0.6 44 4.7 NNW 41 57 22 31 995.5 995.5 0.0
02/09:30am 10.3 -0.1 -0.6 46 4.3 NNW 44 72 24 39 996.1 996.2 0.0
02/09:00am 9.0 -0.5 -0.6 51 3.8 NNW 39 57 21 31 996.9 997.0 0.0
02/08:30am 8.7 -0.8 -1.0 50 3.8 NNW 39 57 21 31 997.3 997.4 0.0
02/08:01am 8.1 -1.4 -0.9 53 3.5 NW 39 59 21 32 997.7 997.8 0.0
02/08:00am 8.0 -1.5 -0.7 54 3.4 NW 39 54 21 29 997.7 997.8 0.0
02/07:30am 8.1 -2.3 -0.5 54 3.4 NNW 44 59 24 32 997.9 998.0 0.0
02/07:00am 9.0 -2.7 -1.2 49 4.0 NW 50 74 27 40 997.8 997.9 0.0
02/06:30am 8.8 -2.1 -0.9 50 3.8 NW 46 65 25 35 998.0 998.1 0.0
02/06:19am 9.1 -2.6 -1.4 48 4.1 NW 50 83 27 45 998.0 998.1 0.0
02/06:00am 9.0 -1.9 -1.2 49 4.0 NW 46 65 25 35 998.4 998.5 0.0
02/05:30am 8.5 -2.0 -1.0 51 3.7 NW 44 65 24 35 998.6 998.7 0.0
02/05:00am 8.2 -1.3 -0.7 53 3.5 NW 39 61 21 33 999.2 999.3 0.0
02/04:31am 7.9 0.6 -0.2 56 3.2 NW 28 52 15 28 999.8 999.9 0.0
02/04:30am 7.8 0.5 0.0 58 3.1 NW 28 43 15 23 999.9 1000.0 0.0
02/04:00am 8.0 0.3 -0.4 55 3.3 NW 30 54 16 29 1000.6 1000.7 0.0
02/03:51am 7.9 -0.2 -0.5 55 3.3 NW 32 54 17 29 1000.9 1001.0 0.0
02/03:30am 7.6 1.8 -0.3 57 3.1 NNW 20 39 11 21 1001.3 1001.4 0.0
02/03:00am 8.0 0.6 -0.7 54 3.4 NNW 28 46 15 25 1001.6 1001.7 0.0
02/02:59am 8.0 0.6 -0.7 54 3.4 NNW 28 46 15 25 1001.6 1001.7 0.0
02/02:30am 7.7 1.5 -0.5 56 3.2 NNW 22 41 12 22 1002.2 1002.3 0.0
02/02:12am 7.9 0.4 -1.2 52 3.5 NNW 28 50 15 27 1002.3 1002.4 0.0
02/02:00am 7.6 0.5 -0.9 55 3.3 NNW 26 46 14 25 1002.5 1002.6 0.0
02/01:49am 7.8 0.3 -1.3 52 3.5 NNW 28 46 15 25 1002.6 1002.7 0.0
02/01:30am 7.6 0.5 -1.3 53 3.4 NNW 26 39 14 21 1002.8 1002.9 0.0
02/01:00am 7.4 1.4 -1.2 54 3.3 NNW 20 32 11 17 1003.4 1003.5 0.0
02/12:30am 7.1 1.8 -0.7 57 3.0 N 17 28 9 15 1003.6 1003.7 0.0
02/12:00am 7.1 1.4 -1.0 56 3.1 N 19 32 10 17 1004.1 1004.2 0.0
 
Date/Time
EST
Tmp

°C
App
Tmp
°C
Dew
Point
°C
Rel
Hum
%
Delta-T

°C
Wind Press
QNH
hPa
Press
MSL
hPa
Rain
since
9 am
mm
Dir
 
Spd
km/h
Gust
km/h
Spd
kts
Gust
kts
01/11:30pm 6.9 1.0 -0.9 57 3.0 N 20 32 11 17 1004.2 1004.3 0.0
01/11:00pm 6.7 0.8 -0.6 59 2.8 N 20 33 11 18 1004.6 1004.7 0.0
01/10:30pm 6.7 0.8 -0.9 58 2.9 N 20 39 11 21 1004.9 1005.0 0.0
01/10:00pm 6.6 0.9 -0.7 59 2.8 N 19 30 10 16 1005.3 1005.4 0.0
01/09:30pm 6.8 0.9 -1.1 57 3.0 N 20 32 11 17 1005.6 1005.7 0.0
01/09:00pm 6.7 1.4 -0.9 58 2.9 N 17 28 9 15 1005.6 1005.7 0.0
01/08:30pm 6.5 0.7 -1.2 58 2.9 N 19 26 10 14 1005.8 1005.9 0.0
01/08:00pm 6.4 1.0 -1.3 58 2.9 NNW 17 26 9 14 1006.3 1006.4 0.0
01/07:30pm 6.8 0.4 -1.4 56 3.1 N 22 35 12 19 1006.3 1006.4 0.0
01/07:00pm 7.2 1.3 -1.9 52 3.4 NNE 19 35 10 19 1005.8 1005.9 0.0
01/06:30pm 7.4 0.5 -2.3 50 3.6 N 24 35 13 19 1005.7 1005.8 0.0
01/06:00pm 7.4 1.4 -1.9 51 3.5 N 20 28 11 15 1005.0 1005.1 0.0
01/05:30pm 7.4 1.4 -1.9 51 3.5 N 20 35 11 19 1004.7 1004.8 0.0
01/05:00pm 7.6 -0.7 -2.0 50 3.6 NW 32 50 17 27 1004.3 1004.4 0.0
01/04:37pm 7.6 -0.9 -1.6 52 3.5 NNW 33 52 18 28 1003.9 1004.0 0.0
01/04:30pm 7.6 -0.8 -1.3 53 3.4 NW 33 48 18 26 1003.7 1003.8 0.0
01/04:05pm 8.2 -0.2 -2.5 47 4.0 NW 32 50 17 27 1004.1 1004.2 0.0
01/04:00pm 8.2 0.2 -2.1 48 3.9 NW 30 46 16 25 1004.1 1004.2 0.0
01/03:30pm 9.0 1.0 -2.0 46 4.2 WNW 30 48 16 26 1003.8 1003.9 0.0
01/03:00pm 8.5 1.1 -0.7 52 3.6 NW 28 48 15 26 1003.9 1004.0 0.0
01/02:42pm 9.2 0.9 -1.7 46 4.2 NW 32 52 17 28 1003.4 1003.5 0.0
01/02:30pm 9.2 1.2 -2.0 45 4.3 NW 30 43 16 23 1003.2 1003.3 0.0
01/02:13pm 8.9 1.0 -1.4 48 4.0 WNW 30 48 16 26 1003.0 1003.1 0.0
01/02:00pm 8.6 0.7 -1.2 50 3.8 NW 30 46 16 25 1002.9 1003.0 0.0
01/01:30pm 7.6 -0.9 0.6 61 2.8 NW 35 56 19 30 1003.0 1003.1 0.0
01/01:12pm 7.4 0.1 0.1 60 2.9 NW 28 52 15 28 1003.2 1003.3 0.0
01/01:00pm 9.1 2.3 -1.8 46 4.2 NW 24 35 13 19 1003.3 1003.4 0.0
01/12:30pm 9.6 1.1 -2.9 41 4.7 WNW 32 46 17 25 1002.3 1002.4 0.0
01/12:00pm 9.4 2.8 -0.4 50 3.9 WNW 24 33 13 18 1002.5 1002.6 0.0
01/11:30am 9.3 1.9 -3.3 41 4.7 WNW 26 52 14 28 1002.4 1002.5 0.0
01/11:00am 8.9 1.9 -0.8 50 3.8 NW 26 43 14 23 1002.6 1002.7 0.0
01/10:30am 8.8 -0.3 -3.4 42 4.5 WNW 35 63 19 34 1002.4 1002.5 0.0
01/10:15am 8.4 0.5 -4.4 40 4.6 WNW 28 54 15 29 1002.1 1002.2 0.0
01/10:00am 7.8 1.5 -1.3 52 3.5 W 22 37 12 20 1002.3 1002.4 0.0
01/09:38am 8.3 0.5 -3.8 42 4.4 WNW 28 67 15 36 1001.5 1001.6 0.0
01/09:30am 7.9 2.0 -1.9 50 3.7 NNW 19 50 10 27 1001.2 1001.3 0.0
01/09:29am 7.9 2.3 -2.6 47 3.9 NW 17 50 9 27 1000.9 1001.0 0.0
01/09:00am 6.9 0.6 -1.2 56 3.1 WNW 22 37 12 20 1000.3 1000.4 3.0
01/08:51am 7.2 0.0 -1.8 53 3.4 WNW 26 48 14 26 1000.4 1000.5 3.0
01/08:49am 7.3 0.4 -2.4 50 3.6 NW 24 48 13 26 1000.2 1000.3 3.0
01/08:30am 6.5 1.9 1.6 71 2.0 NW 15 24 8 13 1000.1 1000.2 3.0
01/08:00am 6.6 1.9 3.0 78 1.5 WNW 17 30 9 16 1000.2 1000.3 2.8
01/07:30am 6.6 0.9 2.8 77 1.6 NW 22 32 12 17 998.7 998.8 2.6
01/07:00am 6.6 -0.6 2.8 77 1.6 NW 30 39 16 21 997.7 997.8 2.6
01/06:30am 6.9 0.9 3.6 79 1.4 NNW 24 35 13 19 997.5 997.6 2.4
01/06:02am 7.2 0.5 3.5 77 1.6 NW 28 46 15 25 997.4 997.5 2.2
01/06:00am 7.2 0.1 3.5 77 1.6 NW 30 46 16 25 997.2 997.3 2.2
01/05:30am 7.7 -0.6 4.0 77 1.6 WNW 37 61 20 33 996.9 997.0 2.0
01/05:03am 8.2 1.3 4.4 77 1.7 WNW 30 50 16 27 996.7 996.8 0.8
01/05:00am 8.3 1.3 4.2 75 1.8 WNW 30 44 16 24 996.6 996.7 0.6
01/04:30am 9.5 2.6 2.5 61 3.0 NW 28 41 15 22 995.9 996.0 0.0
01/04:09am 10.5 1.9 0.3 49 4.2 NNW 35 59 19 32 995.3 995.4 0.0
01/04:00am 10.6 1.6 0.1 48 4.3 NNW 37 50 20 27 995.7 995.8 0.0
01/03:30am 10.7 2.0 -0.7 45 4.5 NNW 35 54 19 29 995.9 996.0 0.0
01/03:02am 10.5 1.8 -0.7 46 4.5 NNW 35 54 19 29 996.6 996.7 0.0
01/03:00am 10.5 1.8 -0.7 46 4.5 NNW 35 48 19 26 996.7 996.8 0.0
01/02:30am 10.5 1.4 -0.7 46 4.5 NNW 37 59 20 32 997.5 997.6 0.0
01/02:00am 10.3 1.2 -0.7 46 4.4 NNW 37 57 20 31 998.1 998.2 0.0
01/01:30am 10.4 0.1 -0.9 45 4.5 NNW 43 61 23 33 998.6 998.7 0.0
01/01:12am 10.0 1.4 -0.1 49 4.1 NNW 35 56 19 30 998.9 999.0 0.0
01/01:00am 9.8 2.1 0.2 51 3.9 NNW 30 41 16 22 998.7 998.8 0.0
01/12:30am 9.7 2.5 0.4 52 3.8 NNW 28 44 15 24 999.8 999.9 0.0
01/12:00am 9.4 2.9 0.3 53 3.7 NNW 24 39 13 21 1001.6 1001.7 0.0
 
Date/Time
EST
Tmp

°C
App
Tmp
°C
Dew
Point
°C
Rel
Hum
%
Delta-T

°C
Wind Press
QNH
hPa
Press
MSL
hPa
Rain
since
9 am
mm
Dir
 
Spd
km/h
Gust
km/h
Spd
kts
Gust
kts
31/11:30pm 8.7 3.5 0.2 55 3.4 NNW 17 28 9 15 1002.7 1002.8 0.0
31/11:00pm 8.7 4.3 0.2 55 3.4 N 13 28 7 15 1002.9 1003.0 0.0
31/10:30pm 8.6 3.8 0.1 55 3.4 NNW 15 24 8 13 1004.0 1004.1 0.0
31/10:00pm 8.8 4.4 0.1 54 3.5 NNW 13 22 7 12 1004.4 1004.5 0.0
31/09:30pm 8.8 4.3 -0.3 53 3.6 NNW 13 22 7 12 1005.5 1005.6 0.0
31/09:00pm 9.0 3.4 -0.3 52 3.7 NNW 19 28 10 15 1006.3 1006.4 0.0
31/08:30pm 9.2 1.8 -0.7 50 3.9 N 28 41 15 22 1006.7 1006.8 0.0
31/08:00pm 9.2 1.8 -0.7 50 3.9 N 28 43 15 23 1007.0 1007.1 0.0
31/07:30pm 9.1 2.4 -0.8 50 3.9 N 24 35 13 19 1007.3 1007.4 0.0
31/07:00pm 8.8 3.2 0.0 54 3.5 NNW 19 30 10 16 1007.8 1007.9 0.0
31/06:30pm 8.9 4.5 0.5 55 3.4 N 13 19 7 10 1008.4 1008.5 0.0
31/06:00pm 9.1 4.4 1.1 57 3.3 N 15 22 8 12 1008.5 1008.7 0.0
31/05:30pm 9.2 4.5 0.6 55 3.5 N 15 20 8 11 1008.6 1008.8 0.0
31/05:00pm 9.6 4.8 0.5 53 3.7 NW 15 22 8 12 1008.5 1008.7 0.0
31/04:30pm 10.2 4.4 -0.2 48 4.2 NW 20 32 11 17 1008.7 1008.9 0.0
31/04:00pm 10.8 4.6 -0.3 46 4.5 NW 22 30 12 16 1009.1 1009.3 0.0
31/03:30pm 11.0 5.2 -0.4 45 4.6 NW 20 30 11 16 1009.8 1010.0 0.0
31/03:00pm 10.8 4.5 -1.0 44 4.7 NNW 22 37 12 20 1009.9 1010.1 0.0
31/02:30pm 10.6 4.0 -0.6 46 4.5 NNW 24 35 13 19 1010.2 1010.4 0.0
31/02:00pm 10.8 4.9 -1.0 44 4.7 NNW 20 32 11 17 1010.6 1010.7 0.0
31/01:30pm 10.3 4.5 -0.4 47 4.3 NNW 20 35 11 19 1011.3 1011.4 0.0
31/01:00pm 9.6 4.4 0.2 52 3.8 NW 17 24 9 13 1012.0 1012.1 0.0
31/12:30pm 9.3 4.4 -0.6 50 3.9 NNW 15 22 8 12 1012.5 1012.6 0.0
31/12:00pm 8.9 4.0 -0.5 51 3.7 N 15 24 8 13 1013.0 1013.1 0.0
31/11:30am 8.5 3.9 -1.1 51 3.7 N 13 19 7 10 1013.4 1013.5 0.0
31/11:00am 8.1 2.7 -1.0 52 3.5 N 17 28 9 15 1013.4 1013.5 0.0
31/10:30am 8.0 2.1 -1.1 52 3.5 N 20 33 11 18 1013.5 1013.6 0.0
31/10:00am 7.9 1.9 -1.3 52 3.5 NNW 20 32 11 17 1013.3 1013.4 0.0
31/09:30am 7.6 1.3 -1.3 53 3.4 NNW 22 32 12 17 1013.0 1013.1 0.0
31/09:00am 7.4 0.3 -1.3 54 3.3 NNW 26 35 14 19 1013.1 1013.2 0.2
31/08:30am 7.5 0.7 -1.8 51 3.5 NNW 24 35 13 19 1013.0 1013.1 0.2
31/08:00am 7.0 1.1 -2.2 52 3.4 NNW 19 30 10 16 1012.6 1012.7 0.2
31/07:30am 6.8 0.7 -2.5 51 3.4 NNW 20 32 11 17 1012.5 1012.6 0.2
31/07:00am 6.4 -0.9 -2.7 52 3.3 N 26 37 14 20 1012.2 1012.3 0.2
31/06:30am 6.2 -1.1 -2.6 53 3.2 N 26 37 14 20 1011.8 1011.9 0.2
31/06:00am 6.3 -1.3 -2.5 53 3.2 N 28 39 15 21 1011.4 1011.5 0.2
31/05:30am 6.5 0.3 -2.9 51 3.4 N 20 32 11 17 1011.1 1011.2 0.2
31/05:00am 6.3 0.7 -2.5 53 3.2 NNW 17 24 9 13 1011.0 1011.1 0.2
31/04:30am 5.8 1.1 -1.8 58 2.8 WNW 13 22 7 12 1010.9 1011.0 0.2
31/04:00am 6.0 0.0 -1.5 58 2.8 NNW 20 32 11 17 1010.2 1010.4 0.2
31/03:30am 6.2 0.8 -1.6 57 2.9 NW 17 26 9 14 1010.4 1010.5 0.2
31/03:00am 6.1 1.9 -1.1 60 2.7 WNW 11 19 6 10 1009.8 1010.0 0.2
31/02:30am 6.2 1.2 -1.3 58 2.8 NW 15 24 8 13 1009.6 1009.8 0.2

Latest Capital City Observations: Canberra | Sydney | Melbourne | Brisbane | Adelaide | Perth | Hobart | Darwin

Other Formats:

Comma delimited format used in spreadsheet applications
http://www.bom.gov.au/fwo/IDT60901/IDT60901.94970.axf

JavaScript Object Notation format (JSON) in row-major order
http://www.bom.gov.au/fwo/IDT60901/IDT60901.94970.json